Terminal Aerodrome Forecast
Issued by NWS

Home | Current Version | Previous Version | Text Only | Print | Product List | Glossary On
Versions: 1 2 3 4 5 6 7 8 9 10 11 12 13 14 15 16 17 18 19 20 21 22 23 24 25 26 27 28 29 30 31 32 33 34 35 36 37 38 39 40 41 42 43 44 45 46 47 48 49 50
336
FTUS42 KMFL 231740
TAFFXE
TAF
KFXE 231740Z 2318/2418 05010KT P6SM VCTS SCT025CB BKN050
     FM240000 VRB05KT P6SM VCSH FEW015 SCT025 BKN250
     FM241400 03008KT P6SM SCT025 BKN050 PROB30 2414/2418 6SM SHRA
      SCT015 BKN025=

USA.gov is the U.S. government's official web portal to all federal, state and local government web resources and services.